Time,TemperatureF,DewpointF,PressureIn,WindDirection,WindDirectionDegrees,WindSpeedMPH,WindSpeedGustMPH,Humidity,HourlyPrecipIn,Conditions,Clouds,dailyrainin,SoftwareType,DateUTC
2013-03-09 00:06:00,43.7,38.0,30.10,NW,313,0.0,-999.0,79,-99.99,,,0.00,weatherlink.com 1.10,2013-03-09 08:06:00,
2013-03-09 00:21:00,42.8,38.0,30.11,NW,313,0.0,-999.0,84,-99.99,,,0.00,weatherlink.com 1.10,2013-03-09 08:21:00,
2013-03-09 00:36:00,42.3,38.0,30.11,NW,313,0.0,-999.0,85,-99.99,,,0.00,weatherlink.com 1.10,2013-03-09 08:36:00,
2013-03-09 00:51:00,41.9,37.0,30.12,NW,313,0.0,-999.0,84,-99.99,,,0.00,weatherlink.com 1.10,2013-03-09 08:51:00,
2013-03-09 01:06:00,41.8,38.0,30.12,NW,313,0.0,-999.0,87,-99.99,,,0.00,weatherlink.com 1.10,2013-03-09 09:06:00,
2013-03-09 01:21:00,41.1,38.0,30.12,NW,313,0.0,-999.0,89,-99.99,,,0.00,weatherlink.com 1.10,2013-03-09 09:21:00,
2013-03-09 01:36:00,41.4,40.0,30.12,NW,313,0.0,-999.0,93,-99.99,,,0.00,weatherlink.com 1.10,2013-03-09 09:36:00,
2013-03-09 01:51:00,41.4,38.0,30.13,NW,313,0.0,-999.0,88,-99.99,,,0.00,weatherlink.com 1.10,2013-03-09 09:51:00,
2013-03-09 02:06:00,40.1,38.0,30.12,NW,308,16.0,-999.0,92,-99.99,,,0.00,weatherlink.com 1.10,2013-03-09 10:06:00,
2013-03-09 02:21:00,39.2,38.0,30.12,NW,309,11.0,-999.0,95,-99.99,,,0.00,weatherlink.com 1.10,2013-03-09 10:21:00,
2013-03-09 02:36:00,39.4,38.0,30.11,NW,311,13.0,-999.0,96,-99.99,,,0.00,weatherlink.com 1.10,2013-03-09 10:36:00,
2013-03-09 02:51:00,39.5,39.0,30.11,WNW,303,13.0,-999.0,96,-99.99,,,0.00,weatherlink.com 1.10,2013-03-09 10:51:00,
2013-03-09 03:06:00,39.3,38.0,30.11,NW,304,12.0,-999.0,96,-99.99,,,0.00,weatherlink.com 1.10,2013-03-09 11:06:00,
2013-03-09 03:23:00,39.1,38.0,30.11,NW,320,7.0,-999.0,96,-99.99,,,0.00,weatherlink.com 1.10,2013-03-09 11:23:00,
2013-03-09 03:37:00,39.1,38.0,30.11,NW,313,14.0,-999.0,96,-99.99,,,0.00,weatherlink.com 1.10,2013-03-09 11:37:00,
2013-03-09 03:52:00,38.7,38.0,30.11,NW,315,11.0,-999.0,96,-99.99,,,0.00,weatherlink.com 1.10,2013-03-09 11:52:00,
2013-03-09 04:07:00,38.8,38.0,30.10,NW,319,10.0,-999.0,95,-99.99,,,0.00,weatherlink.com 1.10,2013-03-09 12:07:00,
2013-03-09 04:23:00,39.7,37.0,30.10,NNW,330,5.0,-999.0,89,-99.99,,,0.00,weatherlink.com 1.10,2013-03-09 12:23:00,
2013-03-09 04:36:00,39.8,36.0,30.11,NW,322,6.0,-999.0,86,-99.99,,,0.00,weatherlink.com 1.10,2013-03-09 12:36:00,
2013-03-09 04:51:00,39.6,36.0,30.12,NW,321,7.0,-999.0,87,-99.99,,,0.00,weatherlink.com 1.10,2013-03-09 12:51:00,
2013-03-09 05:06:00,40.0,36.0,30.12,NW,325,9.0,-999.0,84,-99.99,,,0.00,weatherlink.com 1.10,2013-03-09 13:06:00,
2013-03-09 05:21:00,40.3,36.0,30.13,North,355,4.0,-999.0,83,-99.99,,,0.00,weatherlink.com 1.10,2013-03-09 13:21:00,
2013-03-09 05:37:00,40.0,36.0,30.13,NNE,14,3.0,-999.0,84,-99.99,,,0.00,weatherlink.com 1.10,2013-03-09 13:37:00,
2013-03-09 05:51:00,39.5,36.0,30.13,NNE,17,5.0,-999.0,88,-99.99,,,0.00,weatherlink.com 1.10,2013-03-09 13:51:00,
2013-03-09 06:06:00,39.1,37.0,30.14,NNE,19,4.0,-999.0,91,-99.99,,,0.00,weatherlink.com 1.10,2013-03-09 14:06:00,
2013-03-09 06:21:00,39.5,38.0,30.14,NE,53,3.0,-999.0,93,-99.99,,,0.00,weatherlink.com 1.10,2013-03-09 14:21:00,
2013-03-09 06:37:00,41.0,39.0,30.15,NE,55,2.0,-999.0,93,-99.99,,,0.00,weatherlink.com 1.10,2013-03-09 14:37:00,
2013-03-09 06:51:00,41.5,39.0,30.16,ENE,57,0.0,-999.0,92,-99.99,,,0.00,weatherlink.com 1.10,2013-03-09 14:51:00,
2013-03-09 07:06:00,41.8,40.0,30.17,ENE,65,0.0,-999.0,92,-99.99,,,0.00,weatherlink.com 1.10,2013-03-09 15:06:00,
2013-03-09 07:21:00,42.4,40.0,30.18,ENE,65,0.0,-999.0,91,-99.99,,,0.00,weatherlink.com 1.10,2013-03-09 15:21:00,
2013-03-09 07:36:00,42.9,40.0,30.19,ENE,65,0.0,-999.0,89,-99.99,,,0.00,weatherlink.com 1.10,2013-03-09 15:36:00,
2013-03-09 07:51:00,43.2,38.0,30.18,NE,51,0.0,-999.0,81,-99.99,,,0.00,weatherlink.com 1.10,2013-03-09 15:51:00,
2013-03-09 08:06:00,44.9,38.0,30.19,NE,36,0.0,-999.0,76,-99.99,,,0.00,weatherlink.com 1.10,2013-03-09 16:06:00,
2013-03-09 08:21:00,45.1,40.0,30.19,NE,43,0.0,-999.0,83,-99.99,,,0.00,weatherlink.com 1.10,2013-03-09 16:21:00,
2013-03-09 08:36:00,45.3,40.0,30.19,NE,42,0.0,-999.0,82,-99.99,,,0.00,weatherlink.com 1.10,2013-03-09 16:36:00,
2013-03-09 08:51:00,46.2,40.0,30.19,NE,40,0.0,-999.0,79,-99.99,,,0.00,weatherlink.com 1.10,2013-03-09 16:51:00,
2013-03-09 09:06:00,46.6,40.0,30.20,NE,42,0.0,-999.0,78,-99.99,,,0.00,weatherlink.com 1.10,2013-03-09 17:06:00,
2013-03-09 09:21:00,46.9,39.0,30.20,NNE,30,0.0,-999.0,74,-99.99,,,0.00,weatherlink.com 1.10,2013-03-09 17:21:00,
2013-03-09 09:36:00,47.7,38.0,30.21,WNW,303,0.0,-999.0,69,-99.99,,,0.00,weatherlink.com 1.10,2013-03-09 17:36:00,
2013-03-09 09:51:00,48.7,40.0,30.21,NE,44,0.0,-999.0,73,-99.99,,,0.00,weatherlink.com 1.10,2013-03-09 17:51:00,
2013-03-09 10:06:00,49.5,41.0,30.22,ENE,65,0.0,-999.0,72,-99.99,,,0.00,weatherlink.com 1.10,2013-03-09 18:06:00,
2013-03-09 10:21:00,50.8,41.0,30.22,NE,38,0.0,-999.0,69,-99.99,,,0.00,weatherlink.com 1.10,2013-03-09 18:21:00,
2013-03-09 10:36:00,52.0,43.0,30.22,SW,219,0.0,-999.0,71,-99.99,,,0.00,weatherlink.com 1.10,2013-03-09 18:36:00,
2013-03-09 10:51:00,52.2,43.0,30.22,SSW,202,0.0,-999.0,70,-99.99,,,0.00,weatherlink.com 1.10,2013-03-09 18:51:00,
2013-03-09 11:06:00,51.3,42.0,30.23,SSW,203,0.0,-999.0,70,-99.99,,,0.00,weatherlink.com 1.10,2013-03-09 19:06:00,
2013-03-09 11:21:00,52.5,43.0,30.23,SSW,200,0.0,-999.0,69,-99.99,,,0.00,weatherlink.com 1.10,2013-03-09 19:21:00,
2013-03-09 11:36:00,53.5,43.0,30.23,SSW,195,0.0,-999.0,68,-99.99,,,0.00,weatherlink.com 1.10,2013-03-09 19:36:00,
2013-03-09 11:51:00,54.3,43.0,30.23,SSW,198,0.0,-999.0,66,-99.99,,,0.00,weatherlink.com 1.10,2013-03-09 19:51:00,
2013-03-09 12:07:00,54.9,44.0,30.23,SW,231,0.0,-999.0,67,-99.99,,,0.00,weatherlink.com 1.10,2013-03-09 20:07:00,
2013-03-09 12:21:00,54.5,43.0,30.23,SW,216,0.0,-999.0,66,-99.99,,,0.00,weatherlink.com 1.10,2013-03-09 20:21:00,
2013-03-09 12:36:00,55.5,42.0,30.22,SW,217,0.0,-999.0,61,-99.99,,,0.00,weatherlink.com 1.10,2013-03-09 20:36:00,
2013-03-09 12:51:00,56.1,43.0,30.22,SW,217,0.0,-999.0,61,-99.99,,,0.00,weatherlink.com 1.10,2013-03-09 20:51:00,
2013-03-09 13:06:00,55.8,43.0,30.22,SW,218,3.0,-999.0,62,-99.99,,,0.00,weatherlink.com 1.10,2013-03-09 21:06:00,
2013-03-09 13:21:00,57.0,45.0,30.21,SW,221,0.0,-999.0,64,-99.99,,,0.00,weatherlink.com 1.10,2013-03-09 21:21:00,
2013-03-09 13:36:00,56.9,40.0,30.20,SW,236,0.0,-999.0,53,-99.99,,,0.00,weatherlink.com 1.10,2013-03-09 21:36:00,
2013-03-09 13:51:00,55.9,39.0,30.20,WSW,238,0.0,-999.0,53,-99.99,,,0.00,weatherlink.com 1.10,2013-03-09 21:51:00,
2013-03-09 14:06:00,55.4,38.0,30.21,West,274,0.0,-999.0,52,-99.99,,,0.00,weatherlink.com 1.10,2013-03-09 22:06:00,
2013-03-09 14:21:00,55.7,37.0,30.20,NW,306,0.0,-999.0,50,-99.99,,,0.00,weatherlink.com 1.10,2013-03-09 22:21:00,
2013-03-09 14:36:00,56.1,39.0,30.21,NW,317,0.0,-999.0,53,-99.99,,,0.00,weatherlink.com 1.10,2013-03-09 22:36:00,
2013-03-09 14:51:00,56.2,40.0,30.21,NW,317,0.0,-999.0,55,-99.99,,,0.00,weatherlink.com 1.10,2013-03-09 22:51:00,
2013-03-09 15:07:00,56.2,40.0,30.21,NW,313,1.0,-999.0,54,-99.99,,,0.00,weatherlink.com 1.10,2013-03-09 23:07:00,
2013-03-09 15:21:00,56.2,39.0,30.21,WNW,303,6.0,-999.0,52,-99.99,,,0.00,weatherlink.com 1.10,2013-03-09 23:21:00,
2013-03-09 15:36:00,56.3,42.0,30.21,NW,308,0.0,-999.0,59,-99.99,,,0.00,weatherlink.com 1.10,2013-03-09 23:36:00,
2013-03-09 15:51:00,56.4,42.0,30.20,WNW,302,1.0,-999.0,58,-99.99,,,0.00,weatherlink.com 1.10,2013-03-09 23:51:00,
2013-03-09 16:06:00,56.2,41.0,30.20,WNW,302,0.0,-999.0,58,-99.99,,,0.00,weatherlink.com 1.10,2013-03-10 00:06:00,
2013-03-09 16:21:00,55.7,41.0,30.21,NW,304,0.0,-999.0,58,-99.99,,,0.00,weatherlink.com 1.10,2013-03-10 00:21:00,
2013-03-09 16:36:00,55.3,41.0,30.21,NW,304,0.0,-999.0,59,-99.99,,,0.00,weatherlink.com 1.10,2013-03-10 00:36:00,
2013-03-09 16:51:00,54.8,41.0,30.21,NW,306,1.0,-999.0,61,-99.99,,,0.00,weatherlink.com 1.10,2013-03-10 00:51:00,
2013-03-09 17:06:00,54.6,42.0,30.21,NW,306,0.0,-999.0,63,-99.99,,,0.00,weatherlink.com 1.10,2013-03-10 01:06:00,
2013-03-09 17:23:00,54.2,41.0,30.21,NW,306,0.0,-999.0,62,-99.99,,,0.00,weatherlink.com 1.10,2013-03-10 01:23:00,
2013-03-09 17:36:00,52.8,42.0,30.22,NW,306,2.0,-999.0,66,-99.99,,,0.00,weatherlink.com 1.10,2013-03-10 01:36:00,
2013-03-09 17:51:00,52.1,40.0,30.22,NW,309,0.0,-999.0,63,-99.99,,,0.00,weatherlink.com 1.10,2013-03-10 01:51:00,
2013-03-09 18:06:00,51.8,39.0,30.23,NW,309,0.0,-999.0,62,-99.99,,,0.00,weatherlink.com 1.10,2013-03-10 02:06:00,
2013-03-09 18:23:00,51.6,39.0,30.24,NW,309,0.0,-999.0,63,-99.99,,,0.00,weatherlink.com 1.10,2013-03-10 02:23:00,
2013-03-09 18:36:00,51.0,39.0,30.24,NW,317,0.0,-999.0,63,-99.99,,,0.00,weatherlink.com 1.10,2013-03-10 02:36:00,
2013-03-09 18:51:00,50.7,38.0,30.25,NW,322,2.0,-999.0,63,-99.99,,,0.00,weatherlink.com 1.10,2013-03-10 02:51:00,
2013-03-09 19:06:00,51.1,39.0,30.25,NW,324,0.0,-999.0,63,-99.99,,,0.00,weatherlink.com 1.10,2013-03-10 03:06:00,
2013-03-09 19:23:00,51.3,38.0,30.25,NW,324,0.0,-999.0,61,-99.99,,,0.00,weatherlink.com 1.10,2013-03-10 03:23:00,
2013-03-09 19:36:00,51.3,38.0,30.25,NW,324,0.0,-999.0,61,-99.99,,,0.00,weatherlink.com 1.10,2013-03-10 03:36:00,
2013-03-09 19:51:00,51.0,38.0,30.25,NW,324,0.0,-999.0,61,-99.99,,,0.00,weatherlink.com 1.10,2013-03-10 03:51:00,
2013-03-09 20:06:00,50.8,39.0,30.25,North,355,2.0,-999.0,65,-99.99,,,0.00,weatherlink.com 1.10,2013-03-10 04:06:00,
2013-03-09 20:21:00,51.0,38.0,30.26,NNE,28,0.0,-999.0,62,-99.99,,,0.00,weatherlink.com 1.10,2013-03-10 04:21:00,
2013-03-09 20:36:00,50.8,36.0,30.27,NE,44,3.0,-999.0,57,-99.99,,,0.00,weatherlink.com 1.10,2013-03-10 04:36:00,
2013-03-09 20:51:00,50.8,36.0,30.27,NE,44,0.0,-999.0,57,-99.99,,,0.00,weatherlink.com 1.10,2013-03-10 04:51:00,
2013-03-09 21:06:00,51.8,36.0,30.28,NE,44,0.0,-999.0,55,-99.99,,,0.00,weatherlink.com 1.10,2013-03-10 05:06:00,
2013-03-09 21:21:00,52.2,34.0,30.28,NE,44,0.0,-999.0,51,-99.99,,,0.00,weatherlink.com 1.10,2013-03-10 05:21:00,
2013-03-09 21:37:00,52.4,32.0,30.29,NE,44,0.0,-999.0,46,-99.99,,,0.00,weatherlink.com 1.10,2013-03-10 05:37:00,
2013-03-09 21:52:00,53.2,31.0,30.29,NE,44,0.0,-999.0,43,-99.99,,,0.00,weatherlink.com 1.10,2013-03-10 05:52:00,
2013-03-09 22:07:00,51.8,30.0,30.29,NE,44,0.0,-999.0,44,-99.99,,,0.00,weatherlink.com 1.10,2013-03-10 06:07:00,
2013-03-09 22:22:00,51.4,30.0,30.30,NE,44,0.0,-999.0,44,-99.99,,,0.00,weatherlink.com 1.10,2013-03-10 06:22:00,
2013-03-09 22:38:00,51.0,31.0,30.30,NE,44,0.0,-999.0,46,-99.99,,,0.00,weatherlink.com 1.10,2013-03-10 06:38:00,
2013-03-09 22:53:00,52.4,30.0,30.30,NE,44,0.0,-999.0,42,-99.99,,,0.00,weatherlink.com 1.10,2013-03-10 06:53:00,
2013-03-09 23:06:00,52.3,33.0,30.31,NE,44,0.0,-999.0,49,-99.99,,,0.00,weatherlink.com 1.10,2013-03-10 07:06:00,
2013-03-09 23:21:00,51.5,31.0,30.31,NE,44,0.0,-999.0,46,-99.99,,,0.00,weatherlink.com 1.10,2013-03-10 07:21:00,
2013-03-09 23:36:00,51.5,31.0,30.30,NE,44,0.0,-999.0,46,-99.99,,,0.00,weatherlink.com 1.10,2013-03-10 07:36:00,
2013-03-09 23:53:00,52.6,32.0,30.30,NW,308,4.0,-999.0,46,-99.99,,,0.00,weatherlink.com 1.10,2013-03-10 07:53:00,